Time;durP1;ratioP1;P1;durP2;ratioP2;P2;SDS_P1;SDS_P2;PMS_P1;PMS_P2;Temp;Humidity;BMP_temperature;BMP_pressure;BME280_temperature;BME280_humidity;BME280_pressure;Samples;Min_cycle;Max_cycle;Signal;HPM_P1;HPM_P2
2022/05/27 00:00:24;;;;;;;7.00;2.30;;;;;;;;;;5081448;28;20080;-70
2022/05/27 00:02:50;;;;;;;9.15;2.53;;;;;;;;;;5081378;28;20032;-70
2022/05/27 00:05:17;;;;;;;4.00;2.40;;;;;;;;;;5080052;28;20054;-72
2022/05/27 00:07:42;;;;;;;2.22;2.13;;;;;;;;;;5063191;28;20074;-71
2022/05/27 00:10:08;;;;;;;6.70;2.38;;;;;;;;;;5081488;28;20081;-69
2022/05/27 00:12:34;;;;;;;5.13;2.70;;;;;;;;;;5081382;28;20449;-70
2022/05/27 00:15:00;;;;;;;7.88;2.97;;;;;;;;;;5079375;28;20185;-70
2022/05/27 00:17:26;;;;;;;4.40;2.50;;;;;;;;;;5080073;28;20078;-69
2022/05/27 00:19:52;;;;;;;3.58;2.17;;;;;;;;;;5080848;28;20067;-71
2022/05/27 00:22:17;;;;;;;3.90;2.55;;;;;;;;;;5080546;28;20028;-70
2022/05/27 00:24:43;;;;;;;4.70;2.90;;;;;;;;;;5080118;28;20028;-71
2022/05/27 00:27:08;;;;;;;3.80;2.50;;;;;;;;;;5079228;28;20259;-71
2022/05/27 00:29:37;;;;;;;2.95;2.38;;;;;;;;;;5081223;28;20545;-69
2022/05/27 00:32:03;;;;;;;3.35;2.50;;;;;;;;;;5080918;28;20087;-69
2022/05/27 00:34:29;;;;;;;5.80;2.58;;;;;;;;;;5080521;28;20038;-69
2022/05/27 00:36:54;;;;;;;3.10;2.28;;;;;;;;;;5080189;28;20055;-67
2022/05/27 00:39:20;;;;;;;3.55;2.50;;;;;;;;;;5081059;28;20435;-68
2022/05/27 00:41:45;;;;;;;5.88;2.35;;;;;;;;;;5081118;28;20040;-68
2022/05/27 00:44:11;;;;;;;3.95;2.35;;;;;;;;;;5081007;28;20070;-67
2022/05/27 00:46:40;;;;;;;2.58;2.15;;;;;;;;;;5061617;28;20481;-68
2022/05/27 00:49:11;;;;;;;3.90;2.45;;;;;;;;;;5080330;28;20133;-67
2022/05/27 00:51:45;;;;;;;4.13;2.10;;;;;;;;;;5080931;28;20036;-67
2022/05/27 00:54:14;;;;;;;2.60;2.33;;;;;;;;;;5080653;28;20309;-68
2022/05/27 00:56:44;;;;;;;5.43;2.30;;;;;;;;;;5080198;28;20108;-68
2022/05/27 00:59:44;;;;;;;2.75;2.10;;;;;;;;;;5079666;28;20070;-68
2022/05/27 01:02:10;;;;;;;5.80;2.05;;;;;;;;;;5061695;28;20052;-68
2022/05/27 01:04:36;;;;;;;2.65;2.45;;;;;;;;;;5080408;28;20050;-71
2022/05/27 01:07:02;;;;;;;2.30;2.10;;;;;;;;;;5081119;28;20042;-71
2022/05/27 01:09:29;;;;;;;3.45;2.00;;;;;;;;;;5074410;28;20036;-72
2022/05/27 01:12:17;;;;;;;4.78;2.42;;;;;;;;;;5080742;28;20047;-71
2022/05/27 01:15:06;;;;;;;5.22;2.25;;;;;;;;;;5080789;28;20051;-69
2022/05/27 01:17:46;;;;;;;2.28;2.08;;;;;;;;;;5080763;28;20438;-68
2022/05/27 01:20:18;;;;;;;2.83;2.08;;;;;;;;;;5079755;28;20046;-69
2022/05/27 01:22:53;;;;;;;;;;;;;;;;;;5081120;28;20437;-69
2022/05/27 01:25:56;;;;;;;4.95;2.40;;;;;;;;;;5080287;28;20948;-69
2022/05/27 01:28:40;;;;;;;;;;;;;;;;;;5081034;28;20055;-69
2022/05/27 01:31:48;;;;;;;4.40;2.60;;;;;;;;;;5080444;28;19916;-69
2022/05/27 01:34:18;;;;;;;4.03;2.53;;;;;;;;;;5080352;28;20373;-70
2022/05/27 01:36:47;;;;;;;4.50;2.25;;;;;;;;;;5080248;28;20032;-69
2022/05/27 01:39:27;;;;;;;3.80;2.40;;;;;;;;;;5080236;28;20047;-69
2022/05/27 01:42:12;;;;;;;2.58;2.38;;;;;;;;;;5080694;28;20039;-69
2022/05/27 01:44:55;;;;;;;5.97;2.28;;;;;;;;;;5079794;28;20032;-68
2022/05/27 01:47:37;;;;;;;2.83;2.58;;;;;;;;;;5080253;28;20493;-67
2022/05/27 01:50:12;;;;;;;3.70;2.90;;;;;;;;;;5080590;28;20039;-68
2022/05/27 01:52:54;;;;;;;2.97;2.70;;;;;;;;;;5080283;28;20097;-68
2022/05/27 01:55:20;;;;;;;;;;;;;;;;;;5079299;28;20040;-70
2022/05/27 01:57:50;;;;;;;3.20;2.70;;;;;;;;;;5080910;28;19912;-69
2022/05/27 02:00:23;;;;;;;5.03;2.85;;;;;;;;;;5083748;28;20548;-67
2022/05/27 02:02:58;;;;;;;4.18;2.83;;;;;;;;;;5083843;28;20060;-67
2022/05/27 02:05:33;;;;;;;6.28;2.70;;;;;;;;;;5082269;28;20130;-67
2022/05/27 02:08:13;;;;;;;2.60;2.40;;;;;;;;;;5083763;28;20044;-68
2022/05/27 02:11:07;;;;;;;2.60;2.40;;;;;;;;;;5083848;28;20196;-69
2022/05/27 02:13:49;;;;;;;2.97;2.42;;;;;;;;;;5080710;28;20056;-68
2022/05/27 02:16:23;;;;;;;5.90;2.95;;;;;;;;;;5081911;28;20036;-69
2022/05/27 02:18:52;;;;;;;5.57;3.05;;;;;;;;;;5083541;28;20032;-67
2022/05/27 02:21:30;;;;;;;3.97;2.63;;;;;;;;;;5065602;28;20609;-66
2022/05/27 02:24:03;;;;;;;4.82;2.70;;;;;;;;;;5081003;28;20050;-68
2022/05/27 02:26:34;;;;;;;5.25;2.55;;;;;;;;;;5081717;28;20121;-69
2022/05/27 02:29:05;;;;;;;2.88;2.47;;;;;;;;;;5083489;28;20942;-69
2022/05/27 02:31:34;;;;;;;5.85;2.40;;;;;;;;;;5083391;28;20039;-69
2022/05/27 02:36:55;;;;;;;2.75;2.22;;;;;;;;;;5082485;28;20048;-68
2022/05/27 02:39:20;;;;;;;4.13;2.33;;;;;;;;;;5082101;28;20039;-70
2022/05/27 02:42:01;;;;;;;2.40;2.20;;;;;;;;;;5083259;28;20043;-71
2022/05/27 02:44:51;;;;;;;3.10;2.50;;;;;;;;;;5083317;28;20123;-71
2022/05/27 02:47:34;;;;;;;5.15;2.20;;;;;;;;;;5082901;28;20050;-69
2022/05/27 02:50:11;;;;;;;2.97;2.30;;;;;;;;;;5081888;28;20050;-72
2022/05/27 02:52:46;;;;;;;3.75;2.50;;;;;;;;;;5082745;28;20396;-73
2022/05/27 02:55:20;;;;;;;2.35;2.15;;;;;;;;;;5082506;28;20496;-70
2022/05/27 02:57:49;;;;;;;6.13;2.25;;;;;;;;;;5064419;28;20136;-72
2022/05/27 03:00:18;;;;;;;2.15;2.05;;;;;;;;;;5081726;28;20035;-69
2022/05/27 03:02:44;;;;;;;5.68;2.47;;;;;;;;;;5082444;28;20505;-69
2022/05/27 03:05:10;;;;;;;2.53;2.33;;;;;;;;;;5082023;28;20043;-69
2022/05/27 03:07:53;;;;;;;4.95;2.05;;;;;;;;;;5082455;28;20044;-69
2022/05/27 03:10:24;;;;;;;5.60;2.15;;;;;;;;;;5079709;28;20047;-70
2022/05/27 03:13:15;;;;;;;2.85;2.00;;;;;;;;;;5082067;28;20063;-69
2022/05/27 03:16:05;;;;;;;3.15;2.10;;;;;;;;;;5030299;28;20147;-71
2022/05/27 03:19:08;;;;;;;2.83;1.90;;;;;;;;;;5082392;28;20032;-70
2022/05/27 03:21:48;;;;;;;5.88;2.35;;;;;;;;;;5044327;28;20405;-71
2022/05/27 03:24:27;;;;;;;3.15;2.10;;;;;;;;;;5077127;28;20028;-69
2022/05/27 03:27:27;;;;;;;2.00;1.90;;;;;;;;;;5081035;28;20032;-69
2022/05/27 03:30:33;;;;;;;2.63;2.00;;;;;;;;;;5064252;28;20115;-69
2022/05/27 03:33:21;;;;;;;2.33;2.13;;;;;;;;;;4969463;28;20051;-69
2022/05/27 03:36:05;;;;;;;4.28;1.55;;;;;;;;;;5078439;28;20062;-69
2022/05/27 03:39:05;;;;;;;5.05;2.08;;;;;;;;;;5082489;28;20028;-70
2022/05/27 03:41:51;;;;;;;5.28;1.65;;;;;;;;;;5064131;28;20051;-69
2022/05/27 03:44:19;;;;;;;4.00;1.90;;;;;;;;;;5081269;28;20036;-69
2022/05/27 03:46:48;;;;;;;10.50;2.10;;;;;;;;;;5081400;28;20063;-69
2022/05/27 03:49:14;;;;;;;2.83;2.53;;;;;;;;;;5082165;28;20485;-69
2022/05/27 03:51:52;;;;;;;3.53;2.67;;;;;;;;;;5081806;28;20043;-69
2022/05/27 03:54:17;;;;;;;1.92;1.83;;;;;;;;;;5080709;28;20047;-69
2022/05/27 03:56:43;;;;;;;3.90;2.25;;;;;;;;;;5063013;28;20031;-69
2022/05/27 03:59:12;;;;;;;2.75;1.80;;;;;;;;;;5081410;28;20401;-67
2022/05/27 04:01:41;;;;;;;2.92;2.10;;;;;;;;;;5081161;28;20044;-71
2022/05/27 04:04:10;;;;;;;2.97;2.03;;;;;;;;;;5081478;28;20043;-67
2022/05/27 04:06:36;;;;;;;6.07;1.98;;;;;;;;;;5080171;28;20056;-70
2022/05/27 04:09:03;;;;;;;5.50;2.00;;;;;;;;;;5081341;28;20039;-70
2022/05/27 04:11:29;;;;;;;5.22;1.90;;;;;;;;;;5081296;28;20027;-73
2022/05/27 04:13:56;;;;;;;6.30;2.05;;;;;;;;;;5062731;28;20113;-69
2022/05/27 04:16:21;;;;;;;3.30;2.08;;;;;;;;;;5076473;28;20031;-69
2022/05/27 04:18:47;;;;;;;3.13;1.98;;;;;;;;;;5080656;28;20391;-69
2022/05/27 04:21:12;;;;;;;3.03;2.10;;;;;;;;;;5080105;28;20058;-69
2022/05/27 04:23:38;;;;;;;2.63;2.03;;;;;;;;;;5081313;28;20055;-69
2022/05/27 04:26:05;;;;;;;1.95;1.77;;;;;;;;;;5080386;28;20050;-69
2022/05/27 04:28:30;;;;;;;3.13;1.90;;;;;;;;;;5080508;28;20039;-70
2022/05/27 04:30:56;;;;;;;5.32;1.60;;;;;;;;;;5081071;28;20127;-69
2022/05/27 04:33:21;;;;;;;2.72;1.98;;;;;;;;;;5081090;28;20048;-69
2022/05/27 04:35:47;;;;;;;5.85;2.30;;;;;;;;;;5080671;28;20036;-69
2022/05/27 04:38:14;;;;;;;4.40;1.98;;;;;;;;;;5080016;28;20032;-69
2022/05/27 04:40:39;;;;;;;2.00;1.80;;;;;;;;;;5081253;28;20036;-69
2022/05/27 04:43:06;;;;;;;5.15;1.95;;;;;;;;;;5080660;28;20055;-69
2022/05/27 04:45:32;;;;;;;2.15;1.95;;;;;;;;;;5080392;28;20116;-69
2022/05/27 04:47:58;;;;;;;4.55;2.30;;;;;;;;;;5080736;28;20042;-69
2022/05/27 04:50:23;;;;;;;4.05;1.95;;;;;;;;;;5080392;28;20040;-70
2022/05/27 04:52:49;;;;;;;3.42;1.73;;;;;;;;;;5081120;28;20129;-69
2022/05/27 04:55:16;;;;;;;2.55;1.70;;;;;;;;;;5080167;28;20401;-69
2022/05/27 04:57:50;;;;;;;6.93;2.15;;;;;;;;;;5080999;28;20107;-69
2022/05/27 05:00:29;;;;;;;2.08;1.88;;;;;;;;;;5079675;28;20151;-68
2022/05/27 05:02:54;;;;;;;2.15;1.95;;;;;;;;;;5080447;28;20084;-68
2022/05/27 05:05:21;;;;;;;2.22;1.80;;;;;;;;;;5080460;28;20404;-68
2022/05/27 05:07:54;;;;;;;2.08;1.90;;;;;;;;;;5062471;28;20744;-68
2022/05/27 05:10:21;;;;;;;4.47;2.00;;;;;;;;;;5080796;28;20136;-68
2022/05/27 05:12:49;;;;;;;2.85;2.08;;;;;;;;;;5078432;28;20036;-69
2022/05/27 05:15:15;;;;;;;3.67;1.70;;;;;;;;;;5079491;28;20040;-68
2022/05/27 05:17:41;;;;;;;6.38;2.08;;;;;;;;;;5080812;28;20047;-69
2022/05/27 05:20:07;;;;;;;7.43;1.98;;;;;;;;;;5080185;28;20880;-69
2022/05/27 05:22:33;;;;;;;2.15;1.95;;;;;;;;;;5079694;28;20143;-69
2022/05/27 05:24:58;;;;;;;5.88;1.90;;;;;;;;;;5079552;28;20150;-69
2022/05/27 05:27:26;;;;;;;4.32;1.75;;;;;;;;;;5080167;28;20040;-69
2022/05/27 05:29:53;;;;;;;3.75;1.70;;;;;;;;;;5080919;28;20066;-69
2022/05/27 05:32:19;;;;;;;4.63;1.50;;;;;;;;;;5081222;28;20046;-69
2022/05/27 05:34:45;;;;;;;1.60;1.50;;;;;;;;;;5083742;28;20081;-70
2022/05/27 05:37:10;;;;;;;3.42;1.70;;;;;;;;;;5083722;28;20390;-69
2022/05/27 05:39:39;;;;;;;4.03;1.83;;;;;;;;;;5084153;28;20087;-69
2022/05/27 05:42:06;;;;;;;5.40;1.70;;;;;;;;;;5084100;28;20032;-69
2022/05/27 05:44:33;;;;;;;2.03;1.60;;;;;;;;;;5083615;28;21094;-69
2022/05/27 05:47:00;;;;;;;1.60;1.42;;;;;;;;;;5083427;28;20476;-70
2022/05/27 05:49:26;;;;;;;4.28;1.50;;;;;;;;;;5084363;28;20039;-69
2022/05/27 05:51:54;;;;;;;3.78;1.30;;;;;;;;;;5083942;28;20036;-69
2022/05/27 05:54:20;;;;;;;6.57;1.35;;;;;;;;;;5083606;28;20051;-69
2022/05/27 05:56:47;;;;;;;3.53;1.17;;;;;;;;;;5082899;28;20486;-69
2022/05/27 05:59:14;;;;;;;1.70;1.20;;;;;;;;;;5083172;28;20040;-69
2022/05/27 06:01:41;;;;;;;2.50;1.48;;;;;;;;;;5083854;28;20039;-70
2022/05/27 06:04:06;;;;;;;3.72;1.30;;;;;;;;;;5083588;28;20028;-70
2022/05/27 06:06:32;;;;;;;4.60;1.50;;;;;;;;;;5082262;28;20035;-70
2022/05/27 06:08:57;;;;;;;1.30;1.20;;;;;;;;;;5083543;28;20054;-69
2022/05/27 06:11:23;;;;;;;1.33;1.23;;;;;;;;;;5083751;28;20840;-69
2022/05/27 06:13:48;;;;;;;1.38;1.20;;;;;;;;;;5083283;28;20504;-70
2022/05/27 06:16:13;;;;;;;2.28;1.30;;;;;;;;;;5082868;28;20036;-70
2022/05/27 06:18:39;;;;;;;2.08;1.60;;;;;;;;;;5082454;28;20039;-70
2022/05/27 06:21:05;;;;;;;1.92;1.45;;;;;;;;;;5083449;28;20103;-69
2022/05/27 06:23:30;;;;;;;3.72;1.35;;;;;;;;;;5083326;28;20473;-70
2022/05/27 06:25:58;;;;;;;2.88;1.13;;;;;;;;;;5082850;28;20036;-70
2022/05/27 06:36:36;;;;;;;1.70;1.05;;;;;;;;;;5082588;28;20496;-70
2022/05/27 06:39:04;;;;;;;1.90;1.15;;;;;;;;;;5082991;28;20032;-70
2022/05/27 06:41:30;;;;;;;4.85;1.25;;;;;;;;;;5081094;28;20032;-70
2022/05/27 06:43:55;;;;;;;1.45;1.02;;;;;;;;;;5080891;28;20523;-70
2022/05/27 06:46:21;;;;;;;2.97;1.30;;;;;;;;;;5081909;28;20253;-70
2022/05/27 06:48:47;;;;;;;5.22;1.13;;;;;;;;;;5080505;28;20086;-69
2022/05/27 06:51:12;;;;;;;1.10;1.00;;;;;;;;;;5082073;28;20122;-69
2022/05/27 06:53:39;;;;;;;1.30;1.20;;;;;;;;;;5082846;28;20039;-69
2022/05/27 06:56:07;;;;;;;2.00;1.10;;;;;;;;;;5081355;28;20070;-69
2022/05/27 06:58:33;;;;;;;2.28;0.90;;;;;;;;;;5082701;28;20032;-69
2022/05/27 07:00:58;;;;;;;1.83;0.80;;;;;;;;;;5082960;28;20032;-69
2022/05/27 07:03:24;;;;;;;2.05;1.00;;;;;;;;;;5063346;28;20391;-69
2022/05/27 07:05:50;;;;;;;4.20;0.93;;;;;;;;;;5081724;28;20552;-69
2022/05/27 07:08:15;;;;;;;5.13;0.90;;;;;;;;;;5082551;28;20039;-68
2022/05/27 07:10:41;;;;;;;3.15;1.08;;;;;;;;;;5082914;28;20082;-69
2022/05/27 07:13:07;;;;;;;7.25;1.00;;;;;;;;;;5081579;28;20085;-69
2022/05/27 07:15:32;;;;;;;1.73;1.08;;;;;;;;;;5081440;28;20517;-69
2022/05/27 07:18:02;;;;;;;1.05;0.80;;;;;;;;;;5082619;28;20067;-69
2022/05/27 07:20:28;;;;;;;4.28;0.85;;;;;;;;;;5082507;28;20036;-68
2022/05/27 07:22:53;;;;;;;2.88;0.80;;;;;;;;;;5082148;28;20152;-68
2022/05/27 07:25:19;;;;;;;1.60;1.10;;;;;;;;;;5080794;28;20039;-69
2022/05/27 07:27:44;;;;;;;1.63;0.95;;;;;;;;;;5082233;28;20212;-69
2022/05/27 07:30:11;;;;;;;1.63;0.98;;;;;;;;;;5066192;28;20043;-69
2022/05/27 07:32:37;;;;;;;1.10;1.00;;;;;;;;;;5081803;28;20051;-69
2022/05/27 07:35:04;;;;;;;1.65;1.08;;;;;;;;;;5081335;28;20036;-69
2022/05/27 07:37:29;;;;;;;1.38;0.90;;;;;;;;;;5081464;28;20119;-69
2022/05/27 07:39:55;;;;;;;1.30;0.95;;;;;;;;;;5064108;28;20184;-69
2022/05/27 07:42:20;;;;;;;1.23;0.90;;;;;;;;;;5081817;28;20039;-69
2022/05/27 07:44:46;;;;;;;7.22;1.33;;;;;;;;;;5081886;28;20036;-69
2022/05/27 07:47:11;;;;;;;2.35;0.98;;;;;;;;;;5080470;28;20107;-69
2022/05/27 07:49:36;;;;;;;1.13;0.90;;;;;;;;;;5082022;28;21079;-69
2022/05/27 07:52:04;;;;;;;2.22;1.23;;;;;;;;;;5081919;28;20090;-69
2022/05/27 07:54:30;;;;;;;2.40;0.90;;;;;;;;;;5081487;28;20138;-69
2022/05/27 07:56:55;;;;;;;5.68;1.08;;;;;;;;;;5080467;28;20047;-69
2022/05/27 07:59:21;;;;;;;6.57;1.10;;;;;;;;;;5081323;28;20490;-69
2022/05/27 08:01:46;;;;;;;3.20;1.10;;;;;;;;;;5081866;28;20036;-69
2022/05/27 08:04:12;;;;;;;2.53;0.80;;;;;;;;;;5081108;28;20031;-69
2022/05/27 08:06:37;;;;;;;2.63;1.05;;;;;;;;;;5080760;28;20047;-69
2022/05/27 08:09:03;;;;;;;2.25;1.02;;;;;;;;;;5080805;28;20089;-69
2022/05/27 08:11:28;;;;;;;2.58;0.80;;;;;;;;;;5081352;28;20049;-69
2022/05/27 08:13:55;;;;;;;2.70;1.23;;;;;;;;;;5081453;28;20190;-69
2022/05/27 08:16:21;;;;;;;0.98;0.90;;;;;;;;;;5080386;28;20047;-69
2022/05/27 08:18:47;;;;;;;1.10;1.00;;;;;;;;;;5080941;28;20061;-69
2022/05/27 08:21:13;;;;;;;1.77;1.00;;;;;;;;;;5081056;28;20420;-69
2022/05/27 08:23:38;;;;;;;6.72;1.10;;;;;;;;;;5081316;28;20039;-69
2022/05/27 08:26:05;;;;;;;2.55;1.17;;;;;;;;;;5079497;28;20139;-68
2022/05/27 08:28:31;;;;;;;3.75;1.23;;;;;;;;;;5081402;28;20077;-69
2022/05/27 08:30:58;;;;;;;2.78;1.20;;;;;;;;;;5080154;28;20393;-69
2022/05/27 08:33:24;;;;;;;1.30;1.08;;;;;;;;;;5080429;28;20105;-69
2022/05/27 08:38:37;;;;;;;2.78;1.48;;;;;;;;;;5081102;28;20031;-69
2022/05/27 08:41:35;;;;;;;3.85;1.00;;;;;;;;;;5079932;28;20070;-69
2022/05/27 08:44:03;;;;;;;1.75;0.80;;;;;;;;;;5080777;28;20287;-69
2022/05/27 08:47:03;;;;;;;2.95;1.35;;;;;;;;;;5080264;28;20101;-69
2022/05/27 08:49:37;;;;;;;2.70;1.20;;;;;;;;;;5062710;28;20040;-69
2022/05/27 08:52:12;;;;;;;1.75;1.00;;;;;;;;;;5080344;28;20093;-69
2022/05/27 08:54:52;;;;;;;1.60;0.90;;;;;;;;;;5080758;28;20499;-69
2022/05/27 09:00:29;;;;;;;2.17;1.00;;;;;;;;;;5081250;28;20044;-69
2022/05/27 09:03:01;;;;;;;1.58;0.85;;;;;;;;;;5075413;28;21228;-69
2022/05/27 09:05:36;;;;;;;1.50;0.80;;;;;;;;;;5080107;28;20423;-69
2022/05/27 09:08:08;;;;;;;0.73;0.73;;;;;;;;;;5083591;28;20058;-69
2022/05/27 09:10:39;;;;;;;2.35;1.00;;;;;;;;;;5058680;28;20048;-68
2022/05/27 09:13:07;;;;;;;2.78;0.82;;;;;;;;;;5066162;28;20042;-69
2022/05/27 09:15:43;;;;;;;1.70;0.88;;;;;;;;;;5084089;28;20032;-69
2022/05/27 09:18:25;;;;;;;1.20;0.85;;;;;;;;;;5084571;28;20032;-68
2022/05/27 09:21:09;;;;;;;;;;;;;;;;;;5085696;28;20064;-69
2022/05/27 09:23:49;;;;;;;4.30;1.10;;;;;;;;;;5084054;28;19916;-69
2022/05/27 09:26:30;;;;;;;2.63;0.85;;;;;;;;;;5082643;28;20032;-69
2022/05/27 09:29:37;;;;;;;1.33;1.00;;;;;;;;;;5084719;28;20048;-69
2022/05/27 09:32:13;;;;;;;2.90;0.90;;;;;;;;;;5037029;28;20140;-69
2022/05/27 09:34:42;;;;;;;1.02;0.93;;;;;;;;;;5084035;28;20036;-69
2022/05/27 09:37:10;;;;;;;1.35;0.80;;;;;;;;;;5082483;28;20043;-69
2022/05/27 09:39:36;;;;;;;1.52;0.93;;;;;;;;;;5084418;28;20047;-69
2022/05/27 09:42:24;;;;;;;1.63;0.90;;;;;;;;;;5084036;28;20081;-69
2022/05/27 09:44:55;;;;;;;3.30;0.90;;;;;;;;;;5084349;28;20126;-69
2022/05/27 09:47:40;;;;;;;5.35;1.05;;;;;;;;;;5082410;28;20485;-69
2022/05/27 09:50:33;;;;;;;3.10;0.98;;;;;;;;;;5066087;28;20154;-68
2022/05/27 09:53:00;;;;;;;3.60;0.80;;;;;;;;;;5083962;28;20040;-69
2022/05/27 09:55:39;;;;;;;0.90;0.88;;;;;;;;;;5083081;28;20036;-69
2022/05/27 09:58:06;;;;;;;3.25;0.93;;;;;;;;;;5082945;28;20036;-69
2022/05/27 10:00:52;;;;;;;3.20;0.80;;;;;;;;;;5084163;28;20032;-69
2022/05/27 10:03:37;;;;;;;2.05;1.00;;;;;;;;;;5083254;28;20056;-69
2022/05/27 10:06:12;;;;;;;0.93;0.90;;;;;;;;;;5083074;28;20050;-69
2022/05/27 10:08:44;;;;;;;3.28;0.90;;;;;;;;;;5082739;28;20056;-69
2022/05/27 10:11:34;;;;;;;1.60;0.70;;;;;;;;;;5083715;28;20043;-68
2022/05/27 10:14:06;;;;;;;1.10;0.82;;;;;;;;;;5083281;28;21071;-69
2022/05/27 10:16:33;;;;;;;2.63;0.80;;;;;;;;;;5083010;28;20032;-69
2022/05/27 10:19:13;;;;;;;1.20;0.60;;;;;;;;;;5081481;28;20142;-69
2022/05/27 10:21:51;;;;;;;0.80;0.80;;;;;;;;;;5083654;28;20082;-69
2022/05/27 10:24:30;;;;;;;1.55;0.68;;;;;;;;;;5083562;28;20124;-68
2022/05/27 10:27:20;;;;;;;2.05;0.95;;;;;;;;;;5083242;28;20489;-69
2022/05/27 10:29:53;;;;;;;1.02;0.90;;;;;;;;;;5082874;28;20454;-69
2022/05/27 10:32:31;;;;;;;2.33;0.85;;;;;;;;;;5083193;28;20833;-69
2022/05/27 10:34:58;;;;;;;3.15;0.88;;;;;;;;;;5083793;28;20151;-70
2022/05/27 10:37:51;;;;;;;4.68;0.90;;;;;;;;;;5083262;28;20035;-70
2022/05/27 10:40:42;;;;;;;2.00;0.60;;;;;;;;;;5082931;28;20047;-69
2022/05/27 10:43:21;;;;;;;4.38;0.70;;;;;;;;;;5083504;28;20169;-70
2022/05/27 10:45:52;;;;;;;1.55;0.77;;;;;;;;;;5083517;28;20625;-70
2022/05/27 10:48:33;;;;;;;0.93;0.65;;;;;;;;;;5084104;28;20044;-70
2022/05/27 10:51:32;;;;;;;4.60;0.90;;;;;;;;;;5084285;28;20036;-70
2022/05/27 10:54:29;;;;;;;1.52;1.00;;;;;;;;;;5084298;28;20036;-70
2022/05/27 11:03:17;;;;;;;3.20;0.80;;;;;;;;;;5082835;28;20036;-71
2022/05/27 11:06:10;;;;;;;1.35;0.70;;;;;;;;;;5082940;28;20221;-71
2022/05/27 11:08:51;;;;;;;1.65;0.80;;;;;;;;;;5083118;28;20040;-71
2022/05/27 11:11:50;;;;;;;2.85;0.93;;;;;;;;;;5082850;28;20107;-72
2022/05/27 11:17:30;;;;;;;1.85;0.93;;;;;;;;;;5081810;28;20117;-72
2022/05/27 11:20:28;;;;;;;0.85;0.80;;;;;;;;;;5082672;28;20541;-71
2022/05/27 11:23:13;;;;;;;0.80;0.70;;;;;;;;;;5082264;28;20043;-71
2022/05/27 11:25:59;;;;;;;1.25;0.82;;;;;;;;;;5081151;28;20035;-71
2022/05/27 11:28:33;;;;;;;0.68;0.63;;;;;;;;;;5082262;28;20119;-72
2022/05/27 11:31:18;;;;;;;1.00;0.80;;;;;;;;;;5082231;28;20086;-71
2022/05/27 11:33:58;;;;;;;1.05;0.65;;;;;;;;;;5082052;28;20046;-71
2022/05/27 11:36:41;;;;;;;1.70;0.80;;;;;;;;;;5080425;28;20173;-72
2022/05/27 11:39:34;;;;;;;2.55;0.75;;;;;;;;;;5081679;28;20126;-71
2022/05/27 11:42:41;;;;;;;3.17;0.70;;;;;;;;;;5082623;28;20540;-72
2022/05/27 11:45:14;;;;;;;5.72;0.70;;;;;;;;;;5080458;28;20036;-71
2022/05/27 11:47:49;;;;;;;2.40;0.80;;;;;;;;;;5080885;28;20036;-71
2022/05/27 11:50:27;;;;;;;1.67;0.80;;;;;;;;;;5082041;28;20058;-71
2022/05/27 11:53:34;;;;;;;2.28;0.95;;;;;;;;;;5082172;28;20051;-71
2022/05/27 11:56:13;;;;;;;1.38;0.80;;;;;;;;;;5081418;28;20060;-71
2022/05/27 11:58:44;;;;;;;1.20;0.70;;;;;;;;;;5080969;28;20539;-72
2022/05/27 12:01:21;;;;;;;2.42;0.80;;;;;;;;;;5081358;28;20040;-71
2022/05/27 12:03:52;;;;;;;1.85;0.80;;;;;;;;;;5081371;28;20911;-71
2022/05/27 12:06:29;;;;;;;3.97;0.73;;;;;;;;;;5080918;28;20132;-71
2022/05/27 12:09:05;;;;;;;0.95;0.70;;;;;;;;;;5077220;28;20047;-71
2022/05/27 12:11:45;;;;;;;2.55;0.75;;;;;;;;;;5080038;28;20043;-71
2022/05/27 12:14:38;;;;;;;3.08;0.90;;;;;;;;;;5061789;28;20485;-71
2022/05/27 12:17:09;;;;;;;1.85;0.93;;;;;;;;;;5079011;28;20492;-70
2022/05/27 12:19:39;;;;;;;2.22;0.70;;;;;;;;;;5078162;28;20040;-71
2022/05/27 12:22:27;;;;;;;2.03;0.93;;;;;;;;;;5080318;28;20067;-71
2022/05/27 12:25:00;;;;;;;1.05;0.68;;;;;;;;;;5079757;28;20028;-71
2022/05/27 12:27:27;;;;;;;1.30;0.80;;;;;;;;;;5079477;28;20036;-70
2022/05/27 12:29:54;;;;;;;2.75;0.80;;;;;;;;;;5079521;28;20129;-71
2022/05/27 12:32:24;;;;;;;1.52;0.90;;;;;;;;;;5079600;28;20118;-71
2022/05/27 12:34:49;;;;;;;4.40;1.20;;;;;;;;;;5078954;28;20040;-71
2022/05/27 12:37:16;;;;;;;1.88;0.77;;;;;;;;;;5079831;28;20051;-71
2022/05/27 12:39:44;;;;;;;2.10;0.80;;;;;;;;;;5079067;28;20040;-71
2022/05/27 12:42:12;;;;;;;2.58;0.70;;;;;;;;;;5077769;28;20050;-71
2022/05/27 12:44:40;;;;;;;2.22;0.88;;;;;;;;;;5079458;28;20036;-71
2022/05/27 12:47:20;;;;;;;0.88;0.70;;;;;;;;;;5079145;28;20442;-71
2022/05/27 12:49:59;;;;;;;2.53;0.68;;;;;;;;;;5079986;28;20035;-71
2022/05/27 12:52:30;;;;;;;3.25;0.80;;;;;;;;;;5079600;28;20046;-70
2022/05/27 12:54:56;;;;;;;1.48;0.60;;;;;;;;;;5078881;28;20061;-71
2022/05/27 13:03:40;;;;;;;2.40;0.63;;;;;;;;;;5078351;28;20041;-71
2022/05/27 13:06:17;;;;;;;2.20;0.55;;;;;;;;;;5078195;28;20044;-71
2022/05/27 13:08:48;;;;;;;1.02;0.93;;;;;;;;;;5080246;28;20131;-71
2022/05/27 13:11:16;;;;;;;;;;;;;;;;;;5081461;28;20063;-71
2022/05/27 13:13:42;;;;;;;2.92;0.70;;;;;;;;;;5080740;28;19924;-70
2022/05/27 13:16:29;;;;;;;3.17;0.70;;;;;;;;;;5079189;28;20043;-71
2022/05/27 13:18:59;;;;;;;3.03;0.85;;;;;;;;;;5080695;28;20149;-71
2022/05/27 13:21:25;;;;;;;2.97;0.70;;;;;;;;;;5080935;28;20040;-71
2022/05/27 13:24:12;;;;;;;1.27;0.73;;;;;;;;;;5081441;28;20043;-71
2022/05/27 13:26:39;;;;;;;3.40;0.70;;;;;;;;;;5080305;28;20063;-71
2022/05/27 13:29:28;;;;;;;2.60;0.70;;;;;;;;;;5080356;28;20036;-70
2022/05/27 13:32:11;;;;;;;4.85;1.00;;;;;;;;;;5081008;28;20038;-71
2022/05/27 13:34:57;;;;;;;1.30;0.50;;;;;;;;;;5081608;28;20035;-71
2022/05/27 13:37:47;;;;;;;3.65;1.38;;;;;;;;;;5080836;28;20077;-71
2022/05/27 13:40:19;;;;;;;3.08;0.98;;;;;;;;;;5081638;28;20051;-71
2022/05/27 13:42:47;;;;;;;1.20;0.80;;;;;;;;;;5081232;28;20729;-71
2022/05/27 13:45:21;;;;;;;4.22;0.95;;;;;;;;;;5081438;28;20044;-71
2022/05/27 13:47:52;;;;;;;1.92;0.77;;;;;;;;;;5079623;28;20442;-71
2022/05/27 13:50:41;;;;;;;3.30;0.90;;;;;;;;;;5081275;28;20032;-71
2022/05/27 13:53:26;;;;;;;1.77;0.80;;;;;;;;;;5082724;28;20040;-71
2022/05/27 13:55:56;;;;;;;2.05;0.90;;;;;;;;;;5085108;28;20059;-71
2022/05/27 13:58:26;;;;;;;2.67;1.08;;;;;;;;;;5084271;28;20047;-71
2022/05/27 14:00:56;;;;;;;1.63;0.95;;;;;;;;;;5067668;28;20032;-71
2022/05/27 14:03:31;;;;;;;1.92;0.75;;;;;;;;;;5085430;28;20054;-72
2022/05/27 14:06:01;;;;;;;1.33;0.73;;;;;;;;;;5084811;28;20040;-71
2022/05/27 14:08:42;;;;;;;5.30;0.80;;;;;;;;;;5085298;28;20128;-71
2022/05/27 14:11:27;;;;;;;2.45;0.93;;;;;;;;;;5083914;28;20043;-71
2022/05/27 14:13:55;;;;;;;1.00;0.80;;;;;;;;;;5084319;28;20036;-72
2022/05/27 14:16:33;;;;;;;3.00;0.88;;;;;;;;;;5083278;28;20507;-72
2022/05/27 14:19:20;;;;;;;2.25;0.93;;;;;;;;;;5083378;28;20683;-72
2022/05/27 14:25:01;;;;;;;2.58;0.77;;;;;;;;;;5080567;28;20043;-69
2022/05/27 14:27:27;;;;;;;3.95;0.90;;;;;;;;;;5081719;28;20036;-70
2022/05/27 14:29:55;;;;;;;2.85;0.98;;;;;;;;;;5082227;28;20036;-69
2022/05/27 14:32:23;;;;;;;1.92;0.60;;;;;;;;;;5081147;28;20189;-70
2022/05/27 14:34:54;;;;;;;1.27;0.73;;;;;;;;;;5080578;28;20090;-69
2022/05/27 14:37:22;;;;;;;4.03;1.02;;;;;;;;;;5081636;28;20040;-69
2022/05/27 14:39:49;;;;;;;1.00;0.95;;;;;;;;;;5081526;28;20953;-67
2022/05/27 14:42:17;;;;;;;1.85;0.85;;;;;;;;;;5081489;28;20032;-67
2022/05/27 14:44:46;;;;;;;4.55;0.88;;;;;;;;;;5081314;28;20036;-67
2022/05/27 14:47:22;;;;;;;3.83;0.88;;;;;;;;;;5081054;28;20027;-67
2022/05/27 14:49:51;;;;;;;4.35;1.10;;;;;;;;;;5080903;28;20038;-67
2022/05/27 14:52:42;;;;;;;3.22;1.00;;;;;;;;;;5081929;28;20101;-67
2022/05/27 14:55:12;;;;;;;2.33;1.10;;;;;;;;;;5080279;28;20039;-67
2022/05/27 14:57:49;;;;;;;1.37;0.77;;;;;;;;;;5081290;28;20074;-67
2022/05/27 15:00:23;;;;;;;1.73;0.90;;;;;;;;;;5081296;28;20081;-67
2022/05/27 15:02:56;;;;;;;4.25;0.80;;;;;;;;;;5081058;28;20455;-67
2022/05/27 15:05:26;;;;;;;1.08;0.70;;;;;;;;;;5079859;28;20390;-67
2022/05/27 15:08:01;;;;;;;5.18;1.17;;;;;;;;;;5080672;28;20547;-67
2022/05/27 15:10:37;;;;;;;0.73;0.70;;;;;;;;;;5063271;28;20035;-67
2022/05/27 15:13:31;;;;;;;5.72;0.90;;;;;;;;;;5081363;28;20040;-67
2022/05/27 15:16:10;;;;;;;4.30;1.02;;;;;;;;;;5079122;28;20048;-67
2022/05/27 15:19:02;;;;;;;3.28;1.00;;;;;;;;;;5080870;28;20036;-67
2022/05/27 15:21:35;;;;;;;3.22;0.80;;;;;;;;;;5063302;28;20051;-67
2022/05/27 15:24:09;;;;;;;3.53;1.05;;;;;;;;;;5080587;28;20028;-67
2022/05/27 15:35:31;;;;;;;0.90;0.80;;;;;;;;;;5081039;28;20131;-67
2022/05/27 15:37:58;;;;;;;1.83;1.23;;;;;;;;;;5078974;28;20027;-67
2022/05/27 15:40:24;;;;;;;2.65;1.50;;;;;;;;;;5080618;28;20040;-67
2022/05/27 15:42:50;;;;;;;2.92;1.10;;;;;;;;;;5080272;28;20109;-67
2022/05/27 15:45:18;;;;;;;1.77;1.20;;;;;;;;;;5080399;28;20046;-70
2022/05/27 15:47:44;;;;;;;2.90;1.38;;;;;;;;;;5079459;28;20051;-69
2022/05/27 15:50:11;;;;;;;2.40;0.82;;;;;;;;;;5079515;28;20085;-70
2022/05/27 15:52:37;;;;;;;2.28;1.10;;;;;;;;;;5080446;28;20048;-70
2022/05/27 15:55:04;;;;;;;2.00;1.08;;;;;;;;;;5080328;28;20044;-69
2022/05/27 15:57:30;;;;;;;5.25;1.17;;;;;;;;;;5079858;28;20036;-69
2022/05/27 15:59:55;;;;;;;2.70;1.13;;;;;;;;;;5078874;28;20124;-69
2022/05/27 16:02:22;;;;;;;4.05;1.15;;;;;;;;;;5079326;28;20042;-69
2022/05/27 16:04:48;;;;;;;2.10;1.00;;;;;;;;;;5079643;28;20447;-69